KORB

Orr Regional Airport

Orr, Minnesota, USA
METAR KORB 190933Z AUTO 00000KT 10SM OVC035 10/09 A3004 RMK AO2
Observed Flight Rules
Sep-19 @ 09:33 UTC (13 minutes ago) Visual Flight Rules
Visibility Clouds
10 miles
  • Overcast at 3,500' AGL
Temperatures Readings
Current 10°C / 50°F
Dewpoint 9°C / 48°F
Humidity 94%
Altimeter 30.04" Hg
Pressure 1017 hPa
Elevation 397
METAR KORB 190933Z AUTO 00000KT 10SM OVC035 10/09 A3004 RMK AO2
Observed Flight Rules
Sep-19 @ 09:33 UTC
(13 minutes ago)
VFR
Clouds
  • Overcast at 3,500' AGL
Temperature Dewpoint
10°C / 50°F 9°C / 48°F
Humidity Altimeter Pressure
94% 30.04" Hg 1017 hPa